sensor_id;sensor_type;location;lat;lon;timestamp;P1;durP1;ratioP1;P2;durP2;ratioP2
21192;SDS011;10754;51.106;7.164;2022-09-09T00:00:17;2.67;;;0.80;;
21192;SDS011;10754;51.106;7.164;2022-09-09T00:02:45;2.15;;;1.02;;
21192;SDS011;10754;51.106;7.164;2022-09-09T00:05:38;3.00;;;1.05;;
21192;SDS011;10754;51.106;7.164;2022-09-09T00:11:10;1.55;;;0.63;;
21192;SDS011;10754;51.106;7.164;2022-09-09T00:13:42;2.92;;;0.90;;
21192;SDS011;10754;51.106;7.164;2022-09-09T00:21:47;2.08;;;0.80;;
21192;SDS011;10754;51.106;7.164;2022-09-09T00:24:29;1.55;;;0.57;;
21192;SDS011;10754;51.106;7.164;2022-09-09T00:27:21;2.08;;;0.85;;
21192;SDS011;10754;51.106;7.164;2022-09-09T00:32:37;3.00;;;0.68;;
21192;SDS011;10754;51.106;7.164;2022-09-09T00:35:12;2.00;;;0.77;;
21192;SDS011;10754;51.106;7.164;2022-09-09T00:37:47;1.65;;;0.82;;
21192;SDS011;10754;51.106;7.164;2022-09-09T00:40:26;1.73;;;0.70;;
21192;SDS011;10754;51.106;7.164;2022-09-09T00:48:51;1.77;;;0.65;;
21192;SDS011;10754;51.106;7.164;2022-09-09T00:57:21;1.77;;;0.60;;
21192;SDS011;10754;51.106;7.164;2022-09-09T01:02:44;2.28;;;0.60;;
21192;SDS011;10754;51.106;7.164;2022-09-09T01:05:20;2.25;;;0.70;;
21192;SDS011;10754;51.106;7.164;2022-09-09T01:07:49;2.42;;;0.57;;
21192;SDS011;10754;51.106;7.164;2022-09-09T01:10:21;1.83;;;0.77;;
21192;SDS011;10754;51.106;7.164;2022-09-09T01:12:58;1.50;;;0.80;;
21192;SDS011;10754;51.106;7.164;2022-09-09T01:15:28;1.30;;;0.57;;
21192;SDS011;10754;51.106;7.164;2022-09-09T01:20:39;2.53;;;1.00;;
21192;SDS011;10754;51.106;7.164;2022-09-09T01:23:28;1.60;;;0.60;;
21192;SDS011;10754;51.106;7.164;2022-09-09T01:28:37;1.85;;;0.70;;
21192;SDS011;10754;51.106;7.164;2022-09-09T01:31:04;1.77;;;0.85;;
21192;SDS011;10754;51.106;7.164;2022-09-09T01:33:31;1.52;;;0.40;;
21192;SDS011;10754;51.106;7.164;2022-09-09T01:35:59;1.92;;;0.75;;
21192;SDS011;10754;51.106;7.164;2022-09-09T01:38:29;1.63;;;0.60;;
21192;SDS011;10754;51.106;7.164;2022-09-09T01:40:57;1.08;;;0.55;;
21192;SDS011;10754;51.106;7.164;2022-09-09T01:43:23;1.75;;;0.80;;
21192;SDS011;10754;51.106;7.164;2022-09-09T01:45:51;2.17;;;0.70;;
21192;SDS011;10754;51.106;7.164;2022-09-09T01:48:19;2.83;;;0.70;;
21192;SDS011;10754;51.106;7.164;2022-09-09T01:50:47;1.38;;;0.57;;
21192;SDS011;10754;51.106;7.164;2022-09-09T01:53:13;2.25;;;0.93;;
21192;SDS011;10754;51.106;7.164;2022-09-09T01:55:42;2.10;;;0.90;;
21192;SDS011;10754;51.106;7.164;2022-09-09T01:58:31;2.92;;;0.70;;
21192;SDS011;10754;51.106;7.164;2022-09-09T02:01:35;1.42;;;0.60;;
21192;SDS011;10754;51.106;7.164;2022-09-09T02:04:36;2.30;;;0.70;;
21192;SDS011;10754;51.106;7.164;2022-09-09T02:07:14;1.05;;;0.40;;
21192;SDS011;10754;51.106;7.164;2022-09-09T02:10:10;1.48;;;0.45;;
21192;SDS011;10754;51.106;7.164;2022-09-09T02:12:42;1.40;;;0.68;;
21192;SDS011;10754;51.106;7.164;2022-09-09T02:15:28;1.00;;;0.43;;
21192;SDS011;10754;51.106;7.164;2022-09-09T02:18:12;1.17;;;0.60;;
21192;SDS011;10754;51.106;7.164;2022-09-09T02:20:40;3.42;;;0.80;;
21192;SDS011;10754;51.106;7.164;2022-09-09T02:23:08;2.42;;;1.00;;
21192;SDS011;10754;51.106;7.164;2022-09-09T02:25:35;1.88;;;0.57;;
21192;SDS011;10754;51.106;7.164;2022-09-09T02:28:02;2.33;;;0.70;;
21192;SDS011;10754;51.106;7.164;2022-09-09T02:30:32;1.77;;;0.65;;
21192;SDS011;10754;51.106;7.164;2022-09-09T02:32:59;1.80;;;0.70;;
21192;SDS011;10754;51.106;7.164;2022-09-09T02:35:28;3.83;;;1.05;;
21192;SDS011;10754;51.106;7.164;2022-09-09T02:37:56;5.68;;;1.20;;
21192;SDS011;10754;51.106;7.164;2022-09-09T02:40:24;3.15;;;0.80;;
21192;SDS011;10754;51.106;7.164;2022-09-09T02:42:50;1.73;;;0.50;;
21192;SDS011;10754;51.106;7.164;2022-09-09T02:45:16;1.83;;;0.80;;
21192;SDS011;10754;51.106;7.164;2022-09-09T02:47:55;2.92;;;0.90;;
21192;SDS011;10754;51.106;7.164;2022-09-09T02:50:35;1.65;;;0.80;;
21192;SDS011;10754;51.106;7.164;2022-09-09T02:53:17;4.43;;;0.95;;
21192;SDS011;10754;51.106;7.164;2022-09-09T02:55:59;1.38;;;0.68;;
21192;SDS011;10754;51.106;7.164;2022-09-09T02:58:34;2.92;;;0.88;;
21192;SDS011;10754;51.106;7.164;2022-09-09T03:01:01;2.20;;;0.98;;
21192;SDS011;10754;51.106;7.164;2022-09-09T03:03:28;2.97;;;0.80;;
21192;SDS011;10754;51.106;7.164;2022-09-09T03:05:54;3.45;;;1.00;;
21192;SDS011;10754;51.106;7.164;2022-09-09T03:08:19;3.20;;;0.60;;
21192;SDS011;10754;51.106;7.164;2022-09-09T03:10:45;3.65;;;1.00;;
21192;SDS011;10754;51.106;7.164;2022-09-09T03:13:10;3.33;;;0.88;;
21192;SDS011;10754;51.106;7.164;2022-09-09T03:15:37;3.63;;;1.00;;
21192;SDS011;10754;51.106;7.164;2022-09-09T03:18:03;1.40;;;0.68;;
21192;SDS011;10754;51.106;7.164;2022-09-09T03:20:29;2.47;;;1.02;;
21192;SDS011;10754;51.106;7.164;2022-09-09T03:22:56;2.88;;;1.10;;
21192;SDS011;10754;51.106;7.164;2022-09-09T03:25:22;1.60;;;0.70;;
21192;SDS011;10754;51.106;7.164;2022-09-09T03:27:49;4.30;;;0.90;;
21192;SDS011;10754;51.106;7.164;2022-09-09T03:30:17;3.22;;;0.80;;
21192;SDS011;10754;51.106;7.164;2022-09-09T03:32:43;4.43;;;0.93;;
21192;SDS011;10754;51.106;7.164;2022-09-09T03:35:09;1.67;;;0.63;;
21192;SDS011;10754;51.106;7.164;2022-09-09T03:37:34;3.08;;;0.82;;
21192;SDS011;10754;51.106;7.164;2022-09-09T03:40:00;2.88;;;0.80;;
21192;SDS011;10754;51.106;7.164;2022-09-09T03:42:26;2.00;;;0.68;;
21192;SDS011;10754;51.106;7.164;2022-09-09T03:44:52;3.05;;;0.88;;
21192;SDS011;10754;51.106;7.164;2022-09-09T03:47:18;3.30;;;0.95;;
21192;SDS011;10754;51.106;7.164;2022-09-09T03:49:44;3.08;;;0.90;;
21192;SDS011;10754;51.106;7.164;2022-09-09T03:52:10;2.67;;;0.95;;
21192;SDS011;10754;51.106;7.164;2022-09-09T03:54:36;2.47;;;0.80;;
21192;SDS011;10754;51.106;7.164;2022-09-09T03:57:02;2.50;;;1.33;;
21192;SDS011;10754;51.106;7.164;2022-09-09T03:59:28;3.58;;;0.90;;
21192;SDS011;10754;51.106;7.164;2022-09-09T04:01:53;2.35;;;0.77;;
21192;SDS011;10754;51.106;7.164;2022-09-09T04:04:19;1.98;;;0.90;;
21192;SDS011;10754;51.106;7.164;2022-09-09T04:06:45;3.38;;;0.80;;
21192;SDS011;10754;51.106;7.164;2022-09-09T04:09:13;1.45;;;0.70;;
21192;SDS011;10754;51.106;7.164;2022-09-09T04:11:39;3.63;;;0.75;;
21192;SDS011;10754;51.106;7.164;2022-09-09T04:14:05;4.28;;;1.00;;
21192;SDS011;10754;51.106;7.164;2022-09-09T04:16:33;2.88;;;0.77;;
21192;SDS011;10754;51.106;7.164;2022-09-09T04:19:01;2.67;;;0.90;;
21192;SDS011;10754;51.106;7.164;2022-09-09T04:21:29;4.03;;;1.10;;
21192;SDS011;10754;51.106;7.164;2022-09-09T04:23:55;1.73;;;0.80;;
21192;SDS011;10754;51.106;7.164;2022-09-09T04:26:20;2.38;;;0.77;;
21192;SDS011;10754;51.106;7.164;2022-09-09T04:28:46;3.28;;;0.95;;
21192;SDS011;10754;51.106;7.164;2022-09-09T04:31:21;2.85;;;0.70;;
21192;SDS011;10754;51.106;7.164;2022-09-09T04:33:48;2.83;;;0.90;;
21192;SDS011;10754;51.106;7.164;2022-09-09T04:36:14;2.28;;;0.60;;
21192;SDS011;10754;51.106;7.164;2022-09-09T04:38:41;3.58;;;1.00;;
21192;SDS011;10754;51.106;7.164;2022-09-09T04:41:06;4.25;;;0.60;;
21192;SDS011;10754;51.106;7.164;2022-09-09T04:43:32;3.25;;;1.00;;
21192;SDS011;10754;51.106;7.164;2022-09-09T04:45:59;1.63;;;0.70;;
21192;SDS011;10754;51.106;7.164;2022-09-09T04:48:25;2.92;;;0.80;;
21192;SDS011;10754;51.106;7.164;2022-09-09T04:50:58;2.67;;;1.10;;
21192;SDS011;10754;51.106;7.164;2022-09-09T04:53:25;3.38;;;0.90;;
21192;SDS011;10754;51.106;7.164;2022-09-09T04:55:51;2.33;;;0.77;;
21192;SDS011;10754;51.106;7.164;2022-09-09T04:58:18;2.97;;;0.75;;
21192;SDS011;10754;51.106;7.164;2022-09-09T05:00:43;2.55;;;0.80;;
21192;SDS011;10754;51.106;7.164;2022-09-09T05:03:09;2.20;;;0.68;;
21192;SDS011;10754;51.106;7.164;2022-09-09T05:05:34;2.75;;;1.00;;
21192;SDS011;10754;51.106;7.164;2022-09-09T05:08:04;1.75;;;0.82;;
21192;SDS011;10754;51.106;7.164;2022-09-09T05:10:32;2.47;;;0.93;;
21192;SDS011;10754;51.106;7.164;2022-09-09T05:12:58;2.55;;;1.08;;
21192;SDS011;10754;51.106;7.164;2022-09-09T05:15:23;2.85;;;0.93;;
21192;SDS011;10754;51.106;7.164;2022-09-09T05:17:49;3.63;;;0.88;;
21192;SDS011;10754;51.106;7.164;2022-09-09T05:20:16;3.65;;;1.10;;
21192;SDS011;10754;51.106;7.164;2022-09-09T05:22:42;2.25;;;0.70;;
21192;SDS011;10754;51.106;7.164;2022-09-09T05:25:07;3.53;;;1.10;;
21192;SDS011;10754;51.106;7.164;2022-09-09T05:27:33;3.65;;;0.80;;
21192;SDS011;10754;51.106;7.164;2022-09-09T05:29:59;3.67;;;1.27;;
21192;SDS011;10754;51.106;7.164;2022-09-09T05:32:24;3.00;;;0.98;;
21192;SDS011;10754;51.106;7.164;2022-09-09T05:34:50;6.05;;;0.90;;
21192;SDS011;10754;51.106;7.164;2022-09-09T05:37:17;2.00;;;0.88;;
21192;SDS011;10754;51.106;7.164;2022-09-09T05:39:43;2.35;;;1.00;;
21192;SDS011;10754;51.106;7.164;2022-09-09T05:42:08;3.55;;;1.20;;
21192;SDS011;10754;51.106;7.164;2022-09-09T05:44:34;6.40;;;1.10;;
21192;SDS011;10754;51.106;7.164;2022-09-09T05:46:59;6.78;;;1.17;;
21192;SDS011;10754;51.106;7.164;2022-09-09T05:49:25;3.80;;;0.90;;
21192;SDS011;10754;51.106;7.164;2022-09-09T05:51:50;3.60;;;0.90;;
21192;SDS011;10754;51.106;7.164;2022-09-09T05:54:16;3.28;;;1.00;;
21192;SDS011;10754;51.106;7.164;2022-09-09T05:56:42;3.70;;;1.00;;
21192;SDS011;10754;51.106;7.164;2022-09-09T05:59:08;3.72;;;1.35;;
21192;SDS011;10754;51.106;7.164;2022-09-09T06:01:34;2.47;;;0.70;;
21192;SDS011;10754;51.106;7.164;2022-09-09T06:04:05;1.52;;;0.70;;
21192;SDS011;10754;51.106;7.164;2022-09-09T06:06:32;1.85;;;0.65;;
21192;SDS011;10754;51.106;7.164;2022-09-09T06:09:02;4.57;;;1.10;;
21192;SDS011;10754;51.106;7.164;2022-09-09T06:11:31;3.35;;;0.82;;
21192;SDS011;10754;51.106;7.164;2022-09-09T06:14:00;2.92;;;1.08;;
21192;SDS011;10754;51.106;7.164;2022-09-09T06:16:27;3.75;;;1.05;;
21192;SDS011;10754;51.106;7.164;2022-09-09T06:18:54;3.40;;;1.33;;
21192;SDS011;10754;51.106;7.164;2022-09-09T06:21:25;3.35;;;1.05;;
21192;SDS011;10754;51.106;7.164;2022-09-09T06:23:52;3.20;;;1.20;;
21192;SDS011;10754;51.106;7.164;2022-09-09T06:26:19;3.58;;;1.20;;
21192;SDS011;10754;51.106;7.164;2022-09-09T06:28:47;1.92;;;0.93;;
21192;SDS011;10754;51.106;7.164;2022-09-09T06:31:15;2.10;;;0.98;;
21192;SDS011;10754;51.106;7.164;2022-09-09T06:33:52;1.95;;;0.70;;
21192;SDS011;10754;51.106;7.164;2022-09-09T06:38:45;6.72;;;1.20;;
21192;SDS011;10754;51.106;7.164;2022-09-09T06:41:12;2.85;;;0.82;;
21192;SDS011;10754;51.106;7.164;2022-09-09T06:43:39;3.72;;;1.23;;
21192;SDS011;10754;51.106;7.164;2022-09-09T06:48:32;3.40;;;0.80;;
21192;SDS011;10754;51.106;7.164;2022-09-09T06:51:05;1.98;;;0.88;;
21192;SDS011;10754;51.106;7.164;2022-09-09T06:53:36;3.30;;;0.80;;
21192;SDS011;10754;51.106;7.164;2022-09-09T06:56:24;3.53;;;1.27;;
21192;SDS011;10754;51.106;7.164;2022-09-09T06:58:53;1.65;;;0.68;;
21192;SDS011;10754;51.106;7.164;2022-09-09T07:01:21;3.03;;;0.98;;
21192;SDS011;10754;51.106;7.164;2022-09-09T07:03:53;2.25;;;1.13;;
21192;SDS011;10754;51.106;7.164;2022-09-09T07:06:23;3.72;;;1.15;;
21192;SDS011;10754;51.106;7.164;2022-09-09T07:08:57;3.95;;;1.00;;
21192;SDS011;10754;51.106;7.164;2022-09-09T07:11:31;4.25;;;1.20;;
21192;SDS011;10754;51.106;7.164;2022-09-09T07:14:06;2.90;;;1.27;;
21192;SDS011;10754;51.106;7.164;2022-09-09T07:16:32;2.28;;;0.93;;
21192;SDS011;10754;51.106;7.164;2022-09-09T07:19:01;2.88;;;1.20;;
21192;SDS011;10754;51.106;7.164;2022-09-09T07:21:28;2.90;;;0.82;;
21192;SDS011;10754;51.106;7.164;2022-09-09T07:23:55;3.75;;;1.08;;
21192;SDS011;10754;51.106;7.164;2022-09-09T07:26:22;3.80;;;0.82;;
21192;SDS011;10754;51.106;7.164;2022-09-09T07:28:50;3.90;;;1.20;;
21192;SDS011;10754;51.106;7.164;2022-09-09T07:31:17;3.95;;;1.30;;
21192;SDS011;10754;51.106;7.164;2022-09-09T07:33:45;4.60;;;1.00;;
21192;SDS011;10754;51.106;7.164;2022-09-09T07:36:15;2.65;;;0.95;;
21192;SDS011;10754;51.106;7.164;2022-09-09T07:38:49;3.22;;;0.85;;
21192;SDS011;10754;51.106;7.164;2022-09-09T07:41:21;4.30;;;1.20;;
21192;SDS011;10754;51.106;7.164;2022-09-09T07:43:50;2.65;;;0.75;;
21192;SDS011;10754;51.106;7.164;2022-09-09T07:46:17;3.25;;;0.98;;
21192;SDS011;10754;51.106;7.164;2022-09-09T07:48:47;3.47;;;1.30;;
21192;SDS011;10754;51.106;7.164;2022-09-09T07:51:19;2.47;;;0.98;;
21192;SDS011;10754;51.106;7.164;2022-09-09T07:53:47;3.33;;;1.52;;
21192;SDS011;10754;51.106;7.164;2022-09-09T07:56:14;3.88;;;1.00;;
21192;SDS011;10754;51.106;7.164;2022-09-09T07:58:46;2.90;;;1.00;;
21192;SDS011;10754;51.106;7.164;2022-09-09T08:01:14;3.72;;;1.25;;
21192;SDS011;10754;51.106;7.164;2022-09-09T08:03:42;3.58;;;0.82;;
21192;SDS011;10754;51.106;7.164;2022-09-09T08:06:09;5.38;;;1.40;;
21192;SDS011;10754;51.106;7.164;2022-09-09T08:08:36;3.65;;;1.05;;
21192;SDS011;10754;51.106;7.164;2022-09-09T08:11:07;2.88;;;0.90;;
21192;SDS011;10754;51.106;7.164;2022-09-09T08:13:38;3.33;;;1.00;;
21192;SDS011;10754;51.106;7.164;2022-09-09T08:16:14;2.35;;;0.95;;
21192;SDS011;10754;51.106;7.164;2022-09-09T08:18:41;3.40;;;0.93;;
21192;SDS011;10754;51.106;7.164;2022-09-09T08:21:10;5.53;;;1.48;;
21192;SDS011;10754;51.106;7.164;2022-09-09T08:23:38;2.33;;;1.00;;
21192;SDS011;10754;51.106;7.164;2022-09-09T08:26:15;5.03;;;1.20;;
21192;SDS011;10754;51.106;7.164;2022-09-09T08:28:42;4.78;;;1.00;;
21192;SDS011;10754;51.106;7.164;2022-09-09T08:31:15;4.75;;;1.23;;
21192;SDS011;10754;51.106;7.164;2022-09-09T08:33:42;4.10;;;1.08;;
21192;SDS011;10754;51.106;7.164;2022-09-09T08:36:11;4.40;;;1.13;;
21192;SDS011;10754;51.106;7.164;2022-09-09T08:38:40;2.40;;;0.77;;
21192;SDS011;10754;51.106;7.164;2022-09-09T08:41:24;4.72;;;1.23;;
21192;SDS011;10754;51.106;7.164;2022-09-09T08:58:25;3.50;;;1.13;;
21192;SDS011;10754;51.106;7.164;2022-09-09T09:11:40;4.22;;;1.42;;
21192;SDS011;10754;51.106;7.164;2022-09-09T09:14:16;2.58;;;0.90;;
21192;SDS011;10754;51.106;7.164;2022-09-09T09:16:58;3.50;;;1.20;;
21192;SDS011;10754;51.106;7.164;2022-09-09T09:19:26;4.88;;;1.55;;
21192;SDS011;10754;51.106;7.164;2022-09-09T09:21:54;4.57;;;1.13;;
21192;SDS011;10754;51.106;7.164;2022-09-09T09:24:27;2.50;;;0.88;;
21192;SDS011;10754;51.106;7.164;2022-09-09T09:27:11;3.50;;;0.98;;
21192;SDS011;10754;51.106;7.164;2022-09-09T09:29:39;3.33;;;0.70;;
21192;SDS011;10754;51.106;7.164;2022-09-09T09:32:08;1.42;;;0.40;;
21192;SDS011;10754;51.106;7.164;2022-09-09T09:34:38;3.40;;;0.60;;
21192;SDS011;10754;51.106;7.164;2022-09-09T09:37:07;1.48;;;0.52;;
21192;SDS011;10754;51.106;7.164;2022-09-09T09:39:43;4.00;;;0.75;;
21192;SDS011;10754;51.106;7.164;2022-09-09T09:42:09;0.90;;;0.43;;
21192;SDS011;10754;51.106;7.164;2022-09-09T09:44:39;3.17;;;0.57;;
21192;SDS011;10754;51.106;7.164;2022-09-09T09:49:37;2.15;;;0.70;;
21192;SDS011;10754;51.106;7.164;2022-09-09T09:52:03;2.47;;;0.65;;
21192;SDS011;10754;51.106;7.164;2022-09-09T09:54:32;2.03;;;0.90;;
21192;SDS011;10754;51.106;7.164;2022-09-09T09:57:11;4.28;;;0.95;;
21192;SDS011;10754;51.106;7.164;2022-09-09T09:59:39;3.63;;;0.80;;
21192;SDS011;10754;51.106;7.164;2022-09-09T10:02:06;1.60;;;0.73;;
21192;SDS011;10754;51.106;7.164;2022-09-09T10:04:45;1.98;;;0.77;;
21192;SDS011;10754;51.106;7.164;2022-09-09T10:07:19;1.90;;;0.65;;
21192;SDS011;10754;51.106;7.164;2022-09-09T10:09:47;3.15;;;0.70;;
21192;SDS011;10754;51.106;7.164;2022-09-09T10:20:35;3.97;;;0.60;;
21192;SDS011;10754;51.106;7.164;2022-09-09T10:23:19;3.53;;;0.85;;
21192;SDS011;10754;51.106;7.164;2022-09-09T10:31:39;1.55;;;0.70;;
21192;SDS011;10754;51.106;7.164;2022-09-09T10:36:41;3.42;;;0.40;;
21192;SDS011;10754;51.106;7.164;2022-09-09T10:42:06;1.38;;;0.60;;
21192;SDS011;10754;51.106;7.164;2022-09-09T10:44:37;1.17;;;0.60;;
21192;SDS011;10754;51.106;7.164;2022-09-09T10:49:58;1.65;;;0.60;;
21192;SDS011;10754;51.106;7.164;2022-09-09T10:55:17;3.20;;;0.65;;
21192;SDS011;10754;51.106;7.164;2022-09-09T10:57:51;4.40;;;0.88;;
21192;SDS011;10754;51.106;7.164;2022-09-09T11:00:20;1.42;;;0.60;;
21192;SDS011;10754;51.106;7.164;2022-09-09T11:02:56;2.28;;;0.75;;
21192;SDS011;10754;51.106;7.164;2022-09-09T11:05:40;3.88;;;1.00;;
21192;SDS011;10754;51.106;7.164;2022-09-09T11:08:14;2.22;;;0.65;;
21192;SDS011;10754;51.106;7.164;2022-09-09T11:10:49;1.05;;;0.52;;
21192;SDS011;10754;51.106;7.164;2022-09-09T11:16:34;2.58;;;0.50;;
21192;SDS011;10754;51.106;7.164;2022-09-09T11:19:19;3.25;;;0.60;;
21192;SDS011;10754;51.106;7.164;2022-09-09T11:21:52;3.03;;;1.02;;
21192;SDS011;10754;51.106;7.164;2022-09-09T11:24:33;1.42;;;0.60;;
21192;SDS011;10754;51.106;7.164;2022-09-09T11:38:32;1.98;;;0.40;;
21192;SDS011;10754;51.106;7.164;2022-09-09T11:41:07;1.48;;;0.50;;
21192;SDS011;10754;51.106;7.164;2022-09-09T11:43:41;3.95;;;0.60;;
21192;SDS011;10754;51.106;7.164;2022-09-09T11:46:10;1.27;;;0.60;;
21192;SDS011;10754;51.106;7.164;2022-09-09T11:48:42;2.63;;;0.80;;
21192;SDS011;10754;51.106;7.164;2022-09-09T11:51:26;2.70;;;0.68;;
21192;SDS011;10754;51.106;7.164;2022-09-09T11:53:57;3.05;;;0.63;;
21192;SDS011;10754;51.106;7.164;2022-09-09T11:56:42;3.47;;;0.65;;
21192;SDS011;10754;51.106;7.164;2022-09-09T11:59:25;2.10;;;0.60;;
21192;SDS011;10754;51.106;7.164;2022-09-09T12:01:57;2.83;;;0.70;;
21192;SDS011;10754;51.106;7.164;2022-09-09T12:04:30;1.98;;;0.70;;
21192;SDS011;10754;51.106;7.164;2022-09-09T12:07:00;1.90;;;0.68;;
21192;SDS011;10754;51.106;7.164;2022-09-09T12:09:43;1.48;;;0.40;;
21192;SDS011;10754;51.106;7.164;2022-09-09T12:17:27;3.08;;;0.60;;
21192;SDS011;10754;51.106;7.164;2022-09-09T12:30:29;1.10;;;0.45;;
21192;SDS011;10754;51.106;7.164;2022-09-09T12:33:15;1.80;;;0.50;;
21192;SDS011;10754;51.106;7.164;2022-09-09T12:35:44;2.65;;;0.80;;
21192;SDS011;10754;51.106;7.164;2022-09-09T12:38:21;2.10;;;0.55;;
21192;SDS011;10754;51.106;7.164;2022-09-09T12:40:57;3.40;;;0.73;;
21192;SDS011;10754;51.106;7.164;2022-09-09T12:43:24;3.08;;;0.68;;
21192;SDS011;10754;51.106;7.164;2022-09-09T12:45:51;2.08;;;0.70;;
21192;SDS011;10754;51.106;7.164;2022-09-09T12:48:24;4.30;;;0.93;;
21192;SDS011;10754;51.106;7.164;2022-09-09T12:50:58;1.85;;;0.70;;
21192;SDS011;10754;51.106;7.164;2022-09-09T12:53:25;1.40;;;0.43;;
21192;SDS011;10754;51.106;7.164;2022-09-09T12:55:57;1.63;;;0.50;;
21192;SDS011;10754;51.106;7.164;2022-09-09T12:58:31;2.70;;;0.75;;
21192;SDS011;10754;51.106;7.164;2022-09-09T13:00:58;2.05;;;0.50;;
21192;SDS011;10754;51.106;7.164;2022-09-09T13:03:25;2.55;;;0.32;;
21192;SDS011;10754;51.106;7.164;2022-09-09T13:05:51;3.45;;;0.70;;
21192;SDS011;10754;51.106;7.164;2022-09-09T13:08:18;2.05;;;0.50;;
21192;SDS011;10754;51.106;7.164;2022-09-09T13:16:04;3.97;;;1.13;;
21192;SDS011;10754;51.106;7.164;2022-09-09T13:18:36;2.00;;;0.55;;
21192;SDS011;10754;51.106;7.164;2022-09-09T13:21:05;1.98;;;0.52;;
21192;SDS011;10754;51.106;7.164;2022-09-09T13:23:32;1.77;;;0.63;;
21192;SDS011;10754;51.106;7.164;2022-09-09T13:28:49;1.65;;;0.65;;
21192;SDS011;10754;51.106;7.164;2022-09-09T13:31:28;2.45;;;0.55;;
21192;SDS011;10754;51.106;7.164;2022-09-09T13:33:55;1.75;;;0.65;;
21192;SDS011;10754;51.106;7.164;2022-09-09T13:36:30;2.08;;;0.52;;
21192;SDS011;10754;51.106;7.164;2022-09-09T13:39:00;1.10;;;0.45;;
21192;SDS011;10754;51.106;7.164;2022-09-09T13:41:36;2.20;;;0.50;;
21192;SDS011;10754;51.106;7.164;2022-09-09T13:44:25;1.67;;;0.50;;
21192;SDS011;10754;51.106;7.164;2022-09-09T13:47:27;1.20;;;0.45;;
21192;SDS011;10754;51.106;7.164;2022-09-09T13:49:48;1.65;;;0.70;;
21192;SDS011;10754;51.106;7.164;2022-09-09T13:52:14;3.63;;;1.00;;
21192;SDS011;10754;51.106;7.164;2022-09-09T13:54:43;8.80;;;2.05;;
21192;SDS011;10754;51.106;7.164;2022-09-09T13:59:43;9.95;;;2.90;;
21192;SDS011;10754;51.106;7.164;2022-09-09T14:02:09;9.45;;;1.92;;
21192;SDS011;10754;51.106;7.164;2022-09-09T14:04:34;6.38;;;1.33;;
21192;SDS011;10754;51.106;7.164;2022-09-09T14:07:00;5.43;;;1.13;;
21192;SDS011;10754;51.106;7.164;2022-09-09T14:09:26;4.25;;;1.10;;
21192;SDS011;10754;51.106;7.164;2022-09-09T14:11:52;5.97;;;1.30;;
21192;SDS011;10754;51.106;7.164;2022-09-09T14:14:18;5.70;;;1.23;;
21192;SDS011;10754;51.106;7.164;2022-09-09T14:16:43;4.15;;;1.20;;
21192;SDS011;10754;51.106;7.164;2022-09-09T14:19:09;4.45;;;1.25;;
21192;SDS011;10754;51.106;7.164;2022-09-09T14:21:34;5.60;;;1.30;;
21192;SDS011;10754;51.106;7.164;2022-09-09T14:24:00;4.00;;;1.40;;
21192;SDS011;10754;51.106;7.164;2022-09-09T14:26:26;3.38;;;1.38;;
21192;SDS011;10754;51.106;7.164;2022-09-09T14:28:53;3.70;;;1.20;;
21192;SDS011;10754;51.106;7.164;2022-09-09T14:31:19;4.70;;;1.40;;
21192;SDS011;10754;51.106;7.164;2022-09-09T14:33:45;11.88;;;2.25;;
21192;SDS011;10754;51.106;7.164;2022-09-09T14:36:10;5.20;;;1.48;;
21192;SDS011;10754;51.106;7.164;2022-09-09T14:38:36;17.55;;;2.33;;
21192;SDS011;10754;51.106;7.164;2022-09-09T14:41:04;14.00;;;3.08;;
21192;SDS011;10754;51.106;7.164;2022-09-09T14:43:30;9.20;;;1.85;;
21192;SDS011;10754;51.106;7.164;2022-09-09T14:45:57;8.55;;;2.15;;
21192;SDS011;10754;51.106;7.164;2022-09-09T14:48:30;5.47;;;1.77;;
21192;SDS011;10754;51.106;7.164;2022-09-09T14:50:56;4.60;;;1.27;;
21192;SDS011;10754;51.106;7.164;2022-09-09T14:53:21;4.00;;;1.20;;
21192;SDS011;10754;51.106;7.164;2022-09-09T14:55:47;3.72;;;1.08;;
21192;SDS011;10754;51.106;7.164;2022-09-09T14:58:13;3.88;;;1.38;;
21192;SDS011;10754;51.106;7.164;2022-09-09T15:00:38;3.78;;;1.13;;
21192;SDS011;10754;51.106;7.164;2022-09-09T15:03:04;3.38;;;1.00;;
21192;SDS011;10754;51.106;7.164;2022-09-09T15:05:29;2.38;;;0.85;;
21192;SDS011;10754;51.106;7.164;2022-09-09T15:07:56;4.82;;;0.98;;
21192;SDS011;10754;51.106;7.164;2022-09-09T15:10:23;5.25;;;1.05;;
21192;SDS011;10754;51.106;7.164;2022-09-09T15:12:49;2.20;;;0.90;;
21192;SDS011;10754;51.106;7.164;2022-09-09T15:15:14;2.22;;;0.90;;
21192;SDS011;10754;51.106;7.164;2022-09-09T15:17:40;1.75;;;0.60;;
21192;SDS011;10754;51.106;7.164;2022-09-09T15:20:05;1.88;;;0.80;;
21192;SDS011;10754;51.106;7.164;2022-09-09T15:22:32;1.90;;;0.65;;
21192;SDS011;10754;51.106;7.164;2022-09-09T15:24:58;1.90;;;0.88;;
21192;SDS011;10754;51.106;7.164;2022-09-09T15:27:24;2.15;;;0.70;;
21192;SDS011;10754;51.106;7.164;2022-09-09T15:29:49;0.80;;;0.50;;
21192;SDS011;10754;51.106;7.164;2022-09-09T15:32:16;2.05;;;0.80;;
21192;SDS011;10754;51.106;7.164;2022-09-09T15:34:42;0.90;;;0.30;;
21192;SDS011;10754;51.106;7.164;2022-09-09T15:37:09;2.15;;;0.68;;
21192;SDS011;10754;51.106;7.164;2022-09-09T15:39:37;0.77;;;0.40;;
21192;SDS011;10754;51.106;7.164;2022-09-09T15:42:03;2.75;;;0.50;;
21192;SDS011;10754;51.106;7.164;2022-09-09T15:44:29;1.30;;;0.50;;
21192;SDS011;10754;51.106;7.164;2022-09-09T15:47:02;1.65;;;0.60;;
21192;SDS011;10754;51.106;7.164;2022-09-09T15:49:28;3.20;;;0.60;;
21192;SDS011;10754;51.106;7.164;2022-09-09T15:51:54;2.78;;;0.77;;
21192;SDS011;10754;51.106;7.164;2022-09-09T15:54:32;1.35;;;0.50;;
21192;SDS011;10754;51.106;7.164;2022-09-09T15:57:00;3.72;;;0.95;;
21192;SDS011;10754;51.106;7.164;2022-09-09T15:59:28;1.33;;;0.65;;
21192;SDS011;10754;51.106;7.164;2022-09-09T16:01:55;0.90;;;0.65;;
21192;SDS011;10754;51.106;7.164;2022-09-09T16:04:21;3.00;;;0.75;;
21192;SDS011;10754;51.106;7.164;2022-09-09T16:06:49;1.48;;;0.45;;
21192;SDS011;10754;51.106;7.164;2022-09-09T16:09:16;1.27;;;0.75;;
21192;SDS011;10754;51.106;7.164;2022-09-09T16:11:42;1.70;;;0.40;;
21192;SDS011;10754;51.106;7.164;2022-09-09T16:14:07;2.67;;;0.65;;
21192;SDS011;10754;51.106;7.164;2022-09-09T16:16:33;1.85;;;0.77;;
21192;SDS011;10754;51.106;7.164;2022-09-09T16:19:00;2.63;;;0.70;;
21192;SDS011;10754;51.106;7.164;2022-09-09T16:21:33;1.67;;;0.68;;
21192;SDS011;10754;51.106;7.164;2022-09-09T16:24:01;1.85;;;0.50;;
21192;SDS011;10754;51.106;7.164;2022-09-09T16:26:29;1.23;;;0.40;;
21192;SDS011;10754;51.106;7.164;2022-09-09T16:28:55;3.00;;;0.65;;
21192;SDS011;10754;51.106;7.164;2022-09-09T16:31:24;0.70;;;0.40;;
21192;SDS011;10754;51.106;7.164;2022-09-09T16:33:50;1.20;;;0.45;;
21192;SDS011;10754;51.106;7.164;2022-09-09T16:36:17;2.42;;;0.73;;
21192;SDS011;10754;51.106;7.164;2022-09-09T16:38:44;1.95;;;0.60;;
21192;SDS011;10754;51.106;7.164;2022-09-09T16:41:10;1.90;;;0.60;;
21192;SDS011;10754;51.106;7.164;2022-09-09T16:43:38;1.30;;;0.45;;
21192;SDS011;10754;51.106;7.164;2022-09-09T16:46:12;0.43;;;0.20;;
21192;SDS011;10754;51.106;7.164;2022-09-09T16:48:43;1.33;;;0.55;;
21192;SDS011;10754;51.106;7.164;2022-09-09T16:51:17;1.15;;;0.45;;
21192;SDS011;10754;51.106;7.164;2022-09-09T16:53:44;1.17;;;0.40;;
21192;SDS011;10754;51.106;7.164;2022-09-09T16:56:10;1.88;;;0.60;;
21192;SDS011;10754;51.106;7.164;2022-09-09T16:58:38;1.77;;;0.50;;
21192;SDS011;10754;51.106;7.164;2022-09-09T17:01:04;1.52;;;0.50;;
21192;SDS011;10754;51.106;7.164;2022-09-09T17:03:30;1.17;;;0.50;;
21192;SDS011;10754;51.106;7.164;2022-09-09T17:05:57;1.13;;;0.55;;
21192;SDS011;10754;51.106;7.164;2022-09-09T17:08:26;1.20;;;0.50;;
21192;SDS011;10754;51.106;7.164;2022-09-09T17:10:55;1.35;;;0.40;;
21192;SDS011;10754;51.106;7.164;2022-09-09T17:13:21;1.20;;;0.43;;